Terminal Aerodrome Forecast
Issued by NWS

Home | Current Version | Previous Version | Text Only | Print | Product List | Glossary On
Versions: 1 2 3 4 5 6 7 8 9 10 11 12 13 14 15 16 17 18 19 20
061
FTUS44 KTSA 290901 AAC
TAFBVO
TAF AMD
KBVO 290901Z 2909/3006 00000KT P6SM -RA BKN004 OVC050
     FM291100 16011KT 4SM -SHRA OVC015
     FM291600 17015G22KT P6SM BKN025
     FM292100 20013KT P6SM BKN050
     FM300000 24005KT P6SM BKN100=

USA.gov is the U.S. government's official web portal to all federal, state and local government web resources and services.